createdAt,value
2019-01-29T00:02:27.737Z,3.30
2019-01-29T00:04:58.283Z,3.20
2019-01-29T00:07:29.274Z,3.10
2019-01-29T00:10:00.289Z,3.10
2019-01-29T00:12:31.338Z,3.10
2019-01-29T00:15:02.100Z,3.00
2019-01-29T00:17:33.125Z,3.00
2019-01-29T00:20:04.587Z,3.00
2019-01-29T00:22:35.144Z,2.90
2019-01-29T00:25:06.194Z,2.90
2019-01-29T00:27:36.630Z,2.90
2019-01-29T00:30:07.370Z,2.90
2019-01-29T00:32:38.401Z,2.80
2019-01-29T00:35:09.272Z,2.80
2019-01-29T00:37:40.242Z,2.80
2019-01-29T00:40:11.027Z,2.80
2019-01-29T00:42:41.479Z,2.70
2019-01-29T00:45:12.361Z,2.70
2019-01-29T00:47:43.017Z,2.70
2019-01-29T00:50:14.290Z,2.70
2019-01-29T00:52:44.790Z,2.60
2019-01-29T00:55:15.285Z,2.60
2019-01-29T00:57:45.571Z,2.50
2019-01-29T01:00:18.715Z,2.50
2019-01-29T01:02:48.957Z,2.40
2019-01-29T01:05:19.966Z,2.40
2019-01-29T01:07:51.508Z,2.40
2019-01-29T01:10:21.928Z,2.30
2019-01-29T01:12:52.681Z,2.30
2019-01-29T01:15:23.739Z,2.20
2019-01-29T01:17:54.087Z,2.20
2019-01-29T01:20:24.006Z,2.20
2019-01-29T01:22:54.731Z,2.20
2019-01-29T01:25:25.400Z,2.20
2019-01-29T01:27:55.887Z,2.10
2019-01-29T01:30:25.996Z,2.10
2019-01-29T01:32:56.054Z,2.10
2019-01-29T01:35:26.732Z,2.00
2019-01-29T01:37:57.182Z,2.00
2019-01-29T01:40:27.940Z,2.00
2019-01-29T01:42:58.972Z,2.00
2019-01-29T01:45:29.400Z,2.00
2019-01-29T01:48:00.076Z,1.90
2019-01-29T01:50:30.845Z,1.90
2019-01-29T01:53:01.574Z,1.90
2019-01-29T01:55:31.784Z,1.90
2019-01-29T01:58:02.414Z,1.90
2019-01-29T02:00:32.994Z,1.90
2019-01-29T02:03:03.091Z,1.80
2019-01-29T02:05:33.862Z,1.80
2019-01-29T02:08:04.675Z,1.80
2019-01-29T02:10:35.174Z,1.80
2019-01-29T02:13:06.610Z,1.80
2019-01-29T02:15:36.947Z,1.80
2019-01-29T02:18:07.630Z,1.80
2019-01-29T02:20:38.729Z,1.70
2019-01-29T02:23:08.956Z,1.70
2019-01-29T02:25:39.862Z,1.70
2019-01-29T02:28:10.544Z,1.70
2019-01-29T02:30:40.944Z,1.70
2019-01-29T02:33:11.877Z,1.70
2019-01-29T02:35:42.836Z,1.70
2019-01-29T02:38:13.632Z,1.70
2019-01-29T02:40:44.425Z,1.70
2019-01-29T02:43:14.725Z,1.70
2019-01-29T02:45:45.326Z,1.70
2019-01-29T02:48:15.646Z,1.70
2019-01-29T02:50:46.727Z,1.70
2019-01-29T02:53:18.588Z,1.70
2019-01-29T02:55:48.843Z,1.60
2019-01-29T02:58:19.776Z,1.60
2019-01-29T03:00:50.606Z,1.60
2019-01-29T03:03:20.909Z,1.60
2019-01-29T03:05:51.368Z,1.60
2019-01-29T03:08:22.398Z,1.60
2019-01-29T03:10:52.865Z,1.60
2019-01-29T03:13:23.267Z,1.60
2019-01-29T03:15:53.705Z,1.60
2019-01-29T03:18:24.603Z,1.60
2019-01-29T03:20:55.671Z,1.60
2019-01-29T03:23:27.428Z,1.60
2019-01-29T03:25:58.595Z,1.50
2019-01-29T03:28:29.551Z,1.50
2019-01-29T03:31:00.092Z,1.50
2019-01-29T03:33:30.817Z,1.50
2019-01-29T03:36:01.407Z,1.50
2019-01-29T03:38:32.332Z,1.50
2019-01-29T03:41:02.855Z,1.50
2019-01-29T03:43:33.620Z,1.40
2019-01-29T03:46:04.659Z,1.40
2019-01-29T03:48:35.342Z,1.40
2019-01-29T03:51:05.261Z,1.40
2019-01-29T03:53:38.113Z,1.40
2019-01-29T03:56:08.059Z,1.40
2019-01-29T03:58:37.956Z,1.40
2019-01-29T04:01:08.917Z,1.40
2019-01-29T04:03:39.625Z,1.40
2019-01-29T04:06:10.074Z,1.40
2019-01-29T04:08:40.759Z,1.40
2019-01-29T04:11:11.500Z,1.40
2019-01-29T04:13:41.566Z,1.40
2019-01-29T04:16:11.975Z,1.40
2019-01-29T04:18:42.693Z,1.40
2019-01-29T04:21:13.783Z,1.40
2019-01-29T04:23:47.698Z,1.40
2019-01-29T04:26:16.801Z,1.40
2019-01-29T04:28:47.661Z,1.40
2019-01-29T04:31:18.343Z,1.40
2019-01-29T04:33:49.229Z,1.40
2019-01-29T04:36:19.135Z,1.30
2019-01-29T04:38:49.449Z,1.30
2019-01-29T04:41:19.966Z,1.30
2019-01-29T04:43:50.206Z,1.30
2019-01-29T04:46:20.550Z,1.30
2019-01-29T04:48:51.069Z,1.30
2019-01-29T04:51:21.206Z,1.30
2019-01-29T04:53:57.105Z,1.30
2019-01-29T04:56:23.549Z,1.20
2019-01-29T04:58:54.017Z,1.20
2019-01-29T05:01:24.505Z,1.20
2019-01-29T05:03:54.995Z,1.20
2019-01-29T05:06:26.042Z,1.10
2019-01-29T05:08:56.637Z,1.10
2019-01-29T05:11:27.042Z,1.10
2019-01-29T05:13:57.963Z,1.10
2019-01-29T05:16:28.289Z,1.00
2019-01-29T05:18:58.947Z,1.00
2019-01-29T05:21:29.703Z,1.00
2019-01-29T05:24:06.696Z,1.00
2019-01-29T05:26:32.654Z,1.00
2019-01-29T05:29:02.983Z,0.90
2019-01-29T05:31:33.611Z,0.80
2019-01-29T05:34:04.558Z,0.80
2019-01-29T05:36:35.024Z,0.70
2019-01-29T05:39:08.517Z,0.60
2019-01-29T05:41:39.241Z,0.60
2019-01-29T05:44:09.992Z,0.60
2019-01-29T05:46:40.618Z,0.50
2019-01-29T05:49:11.579Z,0.50
2019-01-29T05:51:41.989Z,0.50
2019-01-29T05:54:16.476Z,0.60
2019-01-29T05:56:44.662Z,0.60
2019-01-29T05:59:15.255Z,0.60
2019-01-29T06:01:46.328Z,0.70
2019-01-29T06:04:16.990Z,0.70
2019-01-29T06:06:48.029Z,0.70
2019-01-29T06:09:19.119Z,0.70
2019-01-29T06:11:49.900Z,0.70
2019-01-29T06:14:20.718Z,0.70
2019-01-29T06:16:51.342Z,0.70
2019-01-29T06:19:21.966Z,0.70
2019-01-29T06:21:52.500Z,0.70
2019-01-29T06:24:25.880Z,0.70
2019-01-29T06:26:55.401Z,0.70
2019-01-29T06:29:26.440Z,0.80
2019-01-29T06:31:57.198Z,0.80
2019-01-29T06:34:27.526Z,0.80
2019-01-29T06:36:58.060Z,0.80
2019-01-29T06:39:28.472Z,0.80
2019-01-29T06:41:59.146Z,0.80
2019-01-29T06:44:30.062Z,0.80
2019-01-29T06:47:00.742Z,0.80
2019-01-29T06:49:31.681Z,0.80
2019-01-29T06:52:02.489Z,0.80
2019-01-29T06:54:34.194Z,0.80
2019-01-29T06:57:05.006Z,0.80
2019-01-29T06:59:36.142Z,0.80
2019-01-29T07:02:08.223Z,0.80
2019-01-29T07:04:38.776Z,0.90
2019-01-29T07:07:09.744Z,1.00
2019-01-29T07:09:41.019Z,1.00
2019-01-29T07:12:11.390Z,1.00
2019-01-29T07:14:41.907Z,1.10
2019-01-29T07:17:40.364Z,1.20
2019-01-29T07:20:13.082Z,1.20
2019-01-29T07:22:43.408Z,1.30
2019-01-29T07:25:13.979Z,1.30
2019-01-29T07:27:44.138Z,1.40
2019-01-29T07:30:15.658Z,1.60
2019-01-29T07:32:46.208Z,1.60
2019-01-29T07:35:16.880Z,1.80
2019-01-29T07:37:47.495Z,1.90
2019-01-29T07:40:18.011Z,1.90
2019-01-29T07:42:48.728Z,1.90
2019-01-29T07:45:19.685Z,2.00
2019-01-29T07:47:50.017Z,2.00
2019-01-29T07:50:20.338Z,2.00
2019-01-29T07:52:50.473Z,2.10
2019-01-29T07:55:21.164Z,2.20
2019-01-29T07:57:51.992Z,2.20
2019-01-29T08:00:22.574Z,2.20
2019-01-29T08:02:53.049Z,2.30
2019-01-29T08:05:23.001Z,2.40
2019-01-29T08:07:53.457Z,2.40
2019-01-29T08:10:24.719Z,2.50
2019-01-29T08:12:56.672Z,2.50
2019-01-29T08:15:27.484Z,2.50
2019-01-29T08:17:58.005Z,2.50
2019-01-29T08:20:28.157Z,2.50
2019-01-29T08:22:58.411Z,2.50
2019-01-29T08:25:29.537Z,2.50
2019-01-29T08:27:59.864Z,2.60
2019-01-29T08:30:30.536Z,2.60
2019-01-29T08:33:01.417Z,2.60
2019-01-29T08:35:31.487Z,2.70
2019-01-29T08:38:02.066Z,2.80
2019-01-29T08:40:32.925Z,2.90
2019-01-29T08:43:03.379Z,2.90
2019-01-29T08:45:33.592Z,3.00
2019-01-29T08:48:04.853Z,3.00
2019-01-29T08:50:35.274Z,3.10
2019-01-29T08:53:07.077Z,3.10
2019-01-29T08:55:37.771Z,3.10
2019-01-29T08:58:08.247Z,3.10
2019-01-29T09:00:39.200Z,3.20
2019-01-29T09:03:09.821Z,3.30
2019-01-29T09:05:40.131Z,3.30
2019-01-29T09:08:10.815Z,3.30
2019-01-29T09:10:41.852Z,3.30
2019-01-29T09:13:12.449Z,3.30
2019-01-29T09:15:43.231Z,3.40
2019-01-29T09:18:13.919Z,3.40
2019-01-29T09:20:44.689Z,3.50
2019-01-29T09:23:15.243Z,3.50
2019-01-29T09:25:45.641Z,3.60
2019-01-29T09:28:18.537Z,3.70
2019-01-29T09:30:48.596Z,3.70
2019-01-29T09:33:19.145Z,3.80
2019-01-29T09:35:50.013Z,3.90
2019-01-29T09:38:20.767Z,3.90
2019-01-29T09:40:52.432Z,4.00
2019-01-29T09:43:23.045Z,4.10
2019-01-29T09:45:53.243Z,4.20
2019-01-29T09:48:23.875Z,4.20
2019-01-29T09:50:54.583Z,4.20
2019-01-29T09:53:25.129Z,4.20
2019-01-29T09:55:56.180Z,4.30
2019-01-29T09:58:26.660Z,4.50
2019-01-29T10:00:57.454Z,4.60
2019-01-29T10:03:28.374Z,4.60
2019-01-29T10:05:58.994Z,4.60
2019-01-29T10:08:29.693Z,4.60
2019-01-29T10:11:00.479Z,4.50
2019-01-29T10:13:31.663Z,4.50
2019-01-29T10:16:02.606Z,4.40
2019-01-29T10:18:33.214Z,4.40
2019-01-29T10:21:03.905Z,4.40
2019-01-29T10:23:34.642Z,4.40
2019-01-29T10:26:05.289Z,4.30
2019-01-29T10:28:36.114Z,4.40
2019-01-29T10:31:06.846Z,4.40
2019-01-29T10:33:37.834Z,4.60
2019-01-29T10:36:08.560Z,4.70
2019-01-29T10:38:39.702Z,4.80
2019-01-29T10:41:10.361Z,4.80
2019-01-29T10:43:41.408Z,4.90
2019-01-29T10:46:11.856Z,4.90
2019-01-29T10:48:42.143Z,5.00
2019-01-29T10:51:12.878Z,5.00
2019-01-29T10:53:43.754Z,5.10
2019-01-29T10:56:14.822Z,5.20
2019-01-29T10:58:44.744Z,5.30
2019-01-29T11:01:15.702Z,5.40
2019-01-29T11:03:45.879Z,5.40
2019-01-29T11:06:16.625Z,5.40
2019-01-29T11:08:47.680Z,5.40
2019-01-29T11:11:18.440Z,5.50
2019-01-29T11:13:48.790Z,5.50
2019-01-29T11:16:19.798Z,5.50
2019-01-29T11:18:51.229Z,5.60
2019-01-29T11:21:23.905Z,5.70
2019-01-29T11:23:54.704Z,5.80
2019-01-29T11:26:25.578Z,5.70
2019-01-29T11:28:56.257Z,5.70
2019-01-29T11:31:26.726Z,5.60
2019-01-29T11:33:57.214Z,5.70
2019-01-29T11:36:27.602Z,7.00
2019-01-29T11:38:57.826Z,8.30
2019-01-29T11:41:28.286Z,8.60
2019-01-29T11:44:00.535Z,8.50
2019-01-29T11:46:31.612Z,8.20
2019-01-29T11:49:02.757Z,8.00
2019-01-29T11:51:33.639Z,7.90
2019-01-29T11:54:05.275Z,8.00
2019-01-29T11:56:35.509Z,7.90
2019-01-29T11:59:06.161Z,7.90
2019-01-29T12:01:36.762Z,7.70
2019-01-29T12:04:07.776Z,7.40
2019-01-29T12:06:38.576Z,7.30
2019-01-29T12:09:11.234Z,7.30
2019-01-29T12:11:42.252Z,7.20
2019-01-29T12:14:12.738Z,7.30
2019-01-29T12:16:44.385Z,7.20
2019-01-29T12:19:14.764Z,7.10
2019-01-29T12:21:45.065Z,7.00
2019-01-29T12:24:15.219Z,6.80
2019-01-29T12:26:45.693Z,6.70
2019-01-29T12:29:16.026Z,6.50
2019-01-29T12:31:46.797Z,6.50
2019-01-29T12:34:17.707Z,6.60
2019-01-29T12:36:48.395Z,6.70
2019-01-29T12:39:18.871Z,6.70
2019-01-29T12:41:49.575Z,6.70
2019-01-29T12:44:20.250Z,6.70
2019-01-29T12:46:50.842Z,6.70
2019-01-29T12:49:21.675Z,6.70
2019-01-29T12:52:05.509Z,6.70
2019-01-29T12:54:36.545Z,6.60
2019-01-29T12:57:07.241Z,6.50
2019-01-29T12:59:37.961Z,6.40
2019-01-29T13:02:08.434Z,6.40
2019-01-29T13:04:38.707Z,6.30
2019-01-29T13:07:09.403Z,6.30
2019-01-29T13:09:40.161Z,6.20
2019-01-29T13:12:10.599Z,6.20
2019-01-29T13:14:41.080Z,6.20
2019-01-29T13:17:12.017Z,6.20
2019-01-29T13:19:42.691Z,6.20
2019-01-29T13:22:13.647Z,6.20
2019-01-29T13:24:44.461Z,6.20
2019-01-29T13:27:15.209Z,6.20
2019-01-29T13:29:46.026Z,6.20
2019-01-29T13:32:16.711Z,6.30
2019-01-29T13:34:47.016Z,6.30
2019-01-29T13:37:17.557Z,6.30
2019-01-29T13:39:48.324Z,6.40
2019-01-29T13:42:19.041Z,6.50
2019-01-29T13:44:49.504Z,6.70
2019-01-29T13:47:20.282Z,6.80
2019-01-29T13:49:51.403Z,6.90
2019-01-29T13:52:22.447Z,7.00
2019-01-29T13:54:52.376Z,6.90
2019-01-29T13:57:22.692Z,6.80
2019-01-29T13:59:53.399Z,6.80
2019-01-29T14:02:23.735Z,6.70
2019-01-29T14:04:54.294Z,6.60
2019-01-29T14:07:24.957Z,6.50
2019-01-29T14:09:55.455Z,6.30
2019-01-29T14:12:25.637Z,6.20
2019-01-29T14:14:56.183Z,6.20
2019-01-29T14:17:26.864Z,6.00
2019-01-29T14:19:57.872Z,5.90
2019-01-29T14:22:28.627Z,5.90
2019-01-29T14:24:59.364Z,5.80
2019-01-29T14:27:29.770Z,5.80
2019-01-29T14:30:00.536Z,5.70
2019-01-29T14:32:31.385Z,5.70
2019-01-29T14:35:01.764Z,5.60
2019-01-29T14:37:48.396Z,5.60
2019-01-29T14:40:20.731Z,5.60
2019-01-29T14:42:51.595Z,5.60
2019-01-29T14:45:26.990Z,5.60
2019-01-29T14:47:57.181Z,5.50
2019-01-29T14:50:28.066Z,5.40
2019-01-29T14:52:59.247Z,5.40
2019-01-29T14:55:30.002Z,5.30
2019-01-29T14:58:00.620Z,5.30
2019-01-29T15:00:32.226Z,5.20
2019-01-29T15:03:03.243Z,5.20
2019-01-29T15:05:33.585Z,5.10
2019-01-29T15:08:04.477Z,5.00
2019-01-29T15:10:35.038Z,5.00
2019-01-29T15:13:06.175Z,4.90
2019-01-29T15:15:40.156Z,4.90
2019-01-29T15:18:17.608Z,4.90
2019-01-29T15:20:48.573Z,4.90
2019-01-29T15:23:19.221Z,4.90
2019-01-29T15:25:49.923Z,4.90
2019-01-29T15:28:20.610Z,4.80
2019-01-29T15:30:51.370Z,4.70
2019-01-29T15:33:21.753Z,4.70
2019-01-29T15:35:52.701Z,4.70
2019-01-29T15:38:23.166Z,4.70
2019-01-29T15:40:53.908Z,4.70
2019-01-29T15:43:24.860Z,4.70
2019-01-29T15:45:55.613Z,4.70
2019-01-29T15:48:26.179Z,4.60
2019-01-29T15:50:56.936Z,4.60
2019-01-29T15:53:27.416Z,4.50
2019-01-29T15:55:58.046Z,4.50
2019-01-29T15:58:28.685Z,4.40
2019-01-29T16:00:59.638Z,4.40
2019-01-29T16:03:29.995Z,4.40
2019-01-29T16:06:00.524Z,4.40
2019-01-29T16:08:31.610Z,4.40
2019-01-29T16:11:02.058Z,4.30
2019-01-29T16:13:32.538Z,4.30
2019-01-29T16:16:03.295Z,4.30
2019-01-29T16:18:33.696Z,4.30
2019-01-29T16:21:03.894Z,4.20
2019-01-29T16:23:34.123Z,4.20
2019-01-29T16:26:04.608Z,4.10
2019-01-29T16:28:35.140Z,4.10
2019-01-29T16:31:05.843Z,4.10
2019-01-29T16:33:36.283Z,4.00
2019-01-29T16:36:07.749Z,4.00
2019-01-29T16:38:38.805Z,3.90
2019-01-29T16:41:09.483Z,3.90
2019-01-29T16:43:40.267Z,3.90
2019-01-29T16:46:10.185Z,3.90
2019-01-29T16:48:40.985Z,3.90
2019-01-29T16:51:12.019Z,3.90
2019-01-29T16:53:42.745Z,3.80
2019-01-29T16:56:13.508Z,3.80
2019-01-29T16:58:43.980Z,3.70
2019-01-29T17:01:14.053Z,3.70
2019-01-29T17:03:44.678Z,3.70
2019-01-29T17:06:14.727Z,3.70
2019-01-29T17:08:46.112Z,3.70
2019-01-29T17:11:17.230Z,3.70
2019-01-29T17:13:47.519Z,3.70
2019-01-29T17:16:18.361Z,3.70
2019-01-29T17:18:49.299Z,3.70
2019-01-29T17:21:19.474Z,3.70
2019-01-29T17:23:50.021Z,3.70
2019-01-29T17:26:20.792Z,3.60
2019-01-29T17:28:51.405Z,3.60
2019-01-29T17:31:22.165Z,3.60
2019-01-29T17:33:52.747Z,3.60
2019-01-29T17:36:23.257Z,3.50
2019-01-29T17:38:54.035Z,3.40
2019-01-29T17:41:24.817Z,3.30
2019-01-29T17:43:55.845Z,3.30
2019-01-29T17:46:26.031Z,3.20
2019-01-29T17:48:56.517Z,3.20
2019-01-29T17:51:26.993Z,3.10
2019-01-29T17:53:57.421Z,3.00
2019-01-29T17:56:28.437Z,3.00
2019-01-29T17:58:59.339Z,2.90
2019-01-29T18:01:30.115Z,2.90
2019-01-29T18:04:00.831Z,2.90
2019-01-29T18:06:31.896Z,2.90
2019-01-29T18:09:03.661Z,2.80
2019-01-29T18:11:35.339Z,2.70
2019-01-29T18:14:05.828Z,2.70
2019-01-29T18:16:36.873Z,2.60
2019-01-29T18:19:07.299Z,2.60
2019-01-29T18:21:38.055Z,2.50
2019-01-29T18:24:09.017Z,2.50
2019-01-29T18:26:40.063Z,2.40
2019-01-29T18:29:10.476Z,2.30
2019-01-29T18:31:41.527Z,2.30
2019-01-29T18:34:12.231Z,2.20
2019-01-29T18:36:43.260Z,2.20
2019-01-29T18:39:13.993Z,2.20
2019-01-29T18:41:45.022Z,2.10
2019-01-29T18:44:15.398Z,2.10
2019-01-29T18:46:45.786Z,2.10
2019-01-29T18:49:16.562Z,2.10
2019-01-29T18:51:47.547Z,2.10
2019-01-29T18:54:18.010Z,2.00
2019-01-29T18:56:48.210Z,2.00
2019-01-29T18:59:19.169Z,2.00
2019-01-29T19:01:49.914Z,1.90
2019-01-29T19:04:20.316Z,1.90
2019-01-29T19:06:50.975Z,1.90
2019-01-29T19:09:21.609Z,1.90
2019-01-29T19:11:52.659Z,1.90
2019-01-29T19:14:23.427Z,1.90
2019-01-29T19:16:54.236Z,1.80
2019-01-29T19:19:25.300Z,1.80
2019-01-29T19:21:55.981Z,1.80
2019-01-29T19:24:26.633Z,1.80
2019-01-29T19:26:57.550Z,1.80
2019-01-29T19:29:27.978Z,1.70
2019-01-29T19:31:58.790Z,1.70
2019-01-29T19:34:29.810Z,1.70
2019-01-29T19:36:59.961Z,1.70
2019-01-29T19:39:30.154Z,1.70
2019-01-29T19:42:00.666Z,1.60
2019-01-29T19:44:31.920Z,1.60
2019-01-29T19:47:02.210Z,1.60
2019-01-29T19:49:32.984Z,1.60
2019-01-29T19:52:03.688Z,1.60
2019-01-29T19:54:33.754Z,1.50
2019-01-29T19:57:03.962Z,1.50
2019-01-29T19:59:35.336Z,1.50
2019-01-29T20:02:05.644Z,1.50
2019-01-29T20:04:36.072Z,1.50
2019-01-29T20:07:06.749Z,1.50
2019-01-29T20:09:37.180Z,1.50
2019-01-29T20:12:09.652Z,1.50
2019-01-29T20:14:40.518Z,1.40
2019-01-29T20:17:11.010Z,1.50
2019-01-29T20:19:41.754Z,1.50
2019-01-29T20:22:12.591Z,1.50
2019-01-29T20:24:42.751Z,1.50
2019-01-29T20:27:13.383Z,1.60
2019-01-29T20:29:44.035Z,1.60
2019-01-29T20:32:14.706Z,1.60
2019-01-29T20:34:45.838Z,1.60
2019-01-29T20:37:16.548Z,1.60
2019-01-29T20:39:47.317Z,1.50
2019-01-29T20:42:18.360Z,1.50
2019-01-29T20:44:49.123Z,1.50
2019-01-29T20:47:19.387Z,1.50
2019-01-29T20:49:50.200Z,1.50
2019-01-29T20:52:20.392Z,1.50
2019-01-29T20:54:51.010Z,1.50
2019-01-29T20:57:21.987Z,1.40
2019-01-29T20:59:53.040Z,1.50
2019-01-29T21:02:24.115Z,1.50
2019-01-29T21:04:54.884Z,1.50
2019-01-29T21:07:25.618Z,1.50
2019-01-29T21:09:56.689Z,1.50
2019-01-29T21:12:27.571Z,1.50
2019-01-29T21:15:01.036Z,1.60
2019-01-29T21:17:30.682Z,1.50
2019-01-29T21:20:01.239Z,1.60
2019-01-29T21:22:34.073Z,1.60
2019-01-29T21:25:05.691Z,1.60
2019-01-29T21:27:35.843Z,1.60
2019-01-29T21:30:10.671Z,1.60
2019-01-29T21:32:41.357Z,1.60
2019-01-29T21:35:11.781Z,1.60
2019-01-29T21:37:41.515Z,1.60
2019-01-29T21:40:11.869Z,1.50
2019-01-29T21:42:42.372Z,1.50
2019-01-29T21:45:13.450Z,1.50
2019-01-29T21:47:44.199Z,1.60
2019-01-29T21:50:17.349Z,1.60
2019-01-29T21:52:48.121Z,1.60
2019-01-29T21:55:19.284Z,1.60
2019-01-29T21:57:49.925Z,1.60
2019-01-29T22:00:28.881Z,1.60
2019-01-29T22:02:59.596Z,1.60
2019-01-29T22:05:30.273Z,1.60
2019-01-29T22:08:00.966Z,1.70
2019-01-29T22:10:31.713Z,1.60
2019-01-29T22:13:01.755Z,1.60
2019-01-29T22:15:32.447Z,1.60
2019-01-29T22:18:02.778Z,1.60
2019-01-29T22:20:33.579Z,1.60
2019-01-29T22:23:04.593Z,1.60
2019-01-29T22:25:35.807Z,1.50
2019-01-29T22:28:08.293Z,1.50
2019-01-29T22:30:39.975Z,1.50
2019-01-29T22:33:11.007Z,1.50
2019-01-29T22:35:42.068Z,1.40
2019-01-29T22:38:12.579Z,1.50
2019-01-29T22:40:43.253Z,1.40
2019-01-29T22:43:13.986Z,1.40
2019-01-29T22:45:45.033Z,1.40
2019-01-29T22:48:15.757Z,1.40
2019-01-29T22:50:46.430Z,1.30
2019-01-29T22:53:16.789Z,1.40
2019-01-29T22:55:47.449Z,1.30
2019-01-29T22:58:18.423Z,1.30
2019-01-29T23:01:28.393Z,1.30
2019-01-29T23:04:10.651Z,1.30
2019-01-29T23:07:28.659Z,1.30
2019-01-29T23:09:59.199Z,1.30
2019-01-29T23:12:30.018Z,1.30
2019-01-29T23:15:02.735Z,1.30
2019-01-29T23:17:33.641Z,1.20
2019-01-29T23:20:05.538Z,1.30
2019-01-29T23:22:36.364Z,1.20
2019-01-29T23:25:08.096Z,1.20
2019-01-29T23:27:38.984Z,1.30
2019-01-29T23:30:12.956Z,1.30
2019-01-29T23:32:43.794Z,1.20
2019-01-29T23:35:14.862Z,1.20
2019-01-29T23:37:45.530Z,1.20
2019-01-29T23:40:16.353Z,1.20
2019-01-29T23:42:47.431Z,1.20
2019-01-29T23:45:18.364Z,1.20
2019-01-29T23:47:50.658Z,1.20
2019-01-29T23:50:21.380Z,1.20
2019-01-29T23:52:51.660Z,1.20
2019-01-29T23:55:22.242Z,1.20
2019-01-29T23:57:53.146Z,1.20
